Time;durP1;ratioP1;P1;durP2;ratioP2;P2;SDS_P1;SDS_P2;PMS_P1;PMS_P2;Temp;Humidity;BMP_temperature;BMP_pressure;BME280_temperature;BME280_humidity;BME280_pressure;Samples;Min_cycle;Max_cycle;Signal;HPM_P1;HPM_P2
2022/09/16 00:01:16;;;;;;;1999.90;999.90;;;13.40;99.90;;;;;;5033806;28;20221;-68
2022/09/16 00:03:42;;;;;;;1999.90;999.90;;;13.40;99.90;;;;;;5033665;28;20172;-68
2022/09/16 00:06:26;;;;;;;1999.90;999.90;;;13.40;99.90;;;;;;5033294;28;20447;-68
2022/09/16 00:08:54;;;;;;;1999.90;999.90;;;13.50;99.90;;;;;;5033816;28;20412;-68
2022/09/16 00:11:20;;;;;;;1999.90;999.90;;;13.50;99.90;;;;;;5033526;28;20404;-68
2022/09/16 00:13:46;;;;;;;1999.90;999.90;;;13.50;99.90;;;;;;5033498;28;20620;-68
2022/09/16 00:16:20;;;;;;;1999.90;999.90;;;13.50;99.90;;;;;;5033243;28;20448;-68
2022/09/16 00:18:45;;;;;;;1999.90;999.90;;;13.60;99.90;;;;;;5033199;28;20470;-68
2022/09/16 00:21:12;;;;;;;1999.90;999.90;;;13.60;99.90;;;;;;5033181;28;20886;-69
2022/09/16 00:23:37;;;;;;;1999.90;999.90;;;13.60;99.90;;;;;;5033233;28;20208;-68
2022/09/16 00:26:04;;;;;;;1999.90;999.90;;;13.70;99.90;;;;;;5033003;28;20421;-68
2022/09/16 00:28:30;;;;;;;1999.90;999.90;;;13.60;99.90;;;;;;5032980;28;20939;-68
2022/09/16 00:31:00;;;;;;;1999.90;999.90;;;13.60;99.90;;;;;;5033098;28;20429;-68
2022/09/16 00:33:26;;;;;;;1999.90;999.90;;;13.60;99.90;;;;;;5033025;28;20793;-69
2022/09/16 00:36:02;;;;;;;1999.90;999.90;;;13.70;99.90;;;;;;5032816;28;20489;-69
2022/09/16 00:38:28;;;;;;;1999.90;999.90;;;13.60;99.90;;;;;;5032794;28;20495;-68
2022/09/16 00:40:54;;;;;;;1999.90;999.90;;;13.60;99.90;;;;;;5032775;28;20946;-69
2022/09/16 00:43:19;;;;;;;1999.90;999.90;;;13.60;99.90;;;;;;5032847;28;20169;-69
2022/09/16 00:45:54;;;;;;;1999.90;999.90;;;13.60;99.90;;;;;;5032719;28;20190;-69
2022/09/16 00:48:23;;;;;;;1999.90;999.90;;;13.50;99.90;;;;;;5032608;28;20264;-68
2022/09/16 00:50:54;;;;;;;1999.90;999.90;;;13.50;99.90;;;;;;5032728;28;20427;-69
2022/09/16 00:53:23;;;;;;;1999.90;999.90;;;13.50;99.90;;;;;;5032721;28;20430;-69
2022/09/16 00:55:51;;;;;;;1999.90;999.90;;;13.60;99.90;;;;;;5032444;28;20423;-69
2022/09/16 00:58:23;;;;;;;1999.90;999.90;;;13.60;99.90;;;;;;5032318;28;20408;-69
2022/09/16 01:00:49;;;;;;;1999.90;999.90;;;13.70;99.90;;;;;;5032566;28;20435;-69
2022/09/16 01:03:15;;;;;;;1999.90;999.90;;;13.70;99.90;;;;;;5032124;28;20543;-68
2022/09/16 01:05:43;;;;;;;1999.90;999.90;;;13.70;99.90;;;;;;5014151;28;20509;-69
2022/09/16 01:08:08;;;;;;;1999.90;999.90;;;13.70;99.90;;;;;;5032221;28;20495;-68
2022/09/16 01:10:34;;;;;;;1999.90;999.90;;;13.70;99.90;;;;;;5032313;28;20501;-69
2022/09/16 01:13:04;;;;;;;1999.90;999.90;;;13.60;99.90;;;;;;5032238;28;20215;-69
2022/09/16 01:15:43;;;;;;;1999.90;999.90;;;13.60;99.90;;;;;;5032489;28;20232;-68
2022/09/16 01:18:28;;;;;;;1999.90;999.90;;;13.50;99.90;;;;;;5032154;28;20415;-68
2022/09/16 01:21:04;;;;;;;1999.90;999.90;;;13.60;99.90;;;;;;5032306;28;20408;-68
2022/09/16 01:23:48;;;;;;;1999.90;999.90;;;13.50;99.90;;;;;;5032117;28;20912;-69
2022/09/16 01:26:34;;;;;;;1999.90;999.90;;;13.50;99.90;;;;;;5032189;28;20470;-69
2022/09/16 01:29:37;;;;;;;1999.90;999.90;;;13.60;99.90;;;;;;5032135;28;20435;-69
2022/09/16 01:32:30;;;;;;;1999.90;999.90;;;13.70;99.90;;;;;;5032098;28;20398;-69
2022/09/16 01:35:01;;;;;;;1999.90;999.90;;;13.80;99.90;;;;;;5032057;28;20443;-69
2022/09/16 01:37:53;;;;;;;1999.90;999.90;;;13.80;99.90;;;;;;5031700;28;20417;-69
2022/09/16 01:40:45;;;;;;;1999.90;999.90;;;13.70;99.90;;;;;;5032005;28;20409;-68
2022/09/16 01:43:25;;;;;;;1999.90;999.90;;;13.70;99.90;;;;;;5031860;28;20459;-69
2022/09/16 01:46:01;;;;;;;1999.90;999.90;;;13.70;99.90;;;;;;5031834;28;20791;-68
2022/09/16 01:49:02;;;;;;;1999.90;999.90;;;13.80;99.90;;;;;;5031798;28;20404;-68
2022/09/16 01:51:40;;;;;;;1999.90;999.90;;;13.80;99.90;;;;;;4987939;28;20466;-68
2022/09/16 01:54:17;;;;;;;1999.90;999.90;;;13.70;99.90;;;;;;5031907;28;20405;-68
2022/09/16 01:56:54;;;;;;;1999.90;999.90;;;13.70;99.90;;;;;;5031478;28;20427;-69
2022/09/16 01:59:38;;;;;;;1999.90;999.90;;;13.70;99.90;;;;;;5031880;28;20409;-68
2022/09/16 02:02:10;;;;;;;1999.90;999.90;;;13.70;99.90;;;;;;5031730;28;20437;-68
2022/09/16 02:04:41;;;;;;;1999.90;999.90;;;13.70;99.90;;;;;;5031823;28;20928;-68
2022/09/16 02:07:11;;;;;;;1999.90;999.90;;;13.70;99.90;;;;;;5031893;28;20450;-68
2022/09/16 02:09:42;;;;;;;1999.90;999.90;;;13.70;99.90;;;;;;5031943;28;20408;-68
2022/09/16 02:12:12;;;;;;;1999.90;999.90;;;13.60;99.90;;;;;;5031821;28;20485;-68
2022/09/16 02:14:42;;;;;;;1999.90;999.90;;;13.60;99.90;;;;;;5031749;28;20407;-68
2022/09/16 02:17:10;;;;;;;1999.90;999.90;;;13.60;99.90;;;;;;5034963;28;20468;-68
2022/09/16 02:19:40;;;;;;;1999.90;999.90;;;13.60;99.90;;;;;;5035499;28;20499;-68
2022/09/16 02:22:12;;;;;;;1999.90;999.90;;;13.50;99.90;;;;;;5035611;28;20822;-68
2022/09/16 02:24:42;;;;;;;1999.90;999.90;;;13.50;99.90;;;;;;5035518;28;20452;-68
2022/09/16 02:27:11;;;;;;;1999.90;999.90;;;13.50;99.90;;;;;;5035010;28;20485;-68
2022/09/16 02:29:45;;;;;;;1999.90;999.90;;;13.50;99.90;;;;;;5035347;28;20407;-68
2022/09/16 02:32:12;;;;;;;1999.90;999.90;;;13.40;99.90;;;;;;5035315;28;20493;-68
2022/09/16 02:34:44;;;;;;;1999.90;999.90;;;13.40;99.90;;;;;;5035223;28;20409;-68
2022/09/16 02:37:17;;;;;;;1999.90;999.90;;;13.40;99.90;;;;;;5034936;28;20432;-68
2022/09/16 02:39:46;;;;;;;1999.90;999.90;;;13.40;99.90;;;;;;5035317;28;20401;-68
2022/09/16 02:42:12;;;;;;;1999.90;999.90;;;13.40;99.90;;;;;;5035061;28;20987;-68
2022/09/16 02:44:39;;;;;;;1999.90;999.90;;;13.40;99.90;;;;;;5035075;28;20836;-68
2022/09/16 02:47:31;;;;;;;1999.90;999.90;;;13.50;99.90;;;;;;5034688;28;20429;-68
2022/09/16 02:50:11;;;;;;;1999.90;999.90;;;13.50;99.90;;;;;;5035152;28;20420;-68
2022/09/16 02:52:42;;;;;;;1999.90;999.90;;;13.40;99.90;;;;;;5035027;28;20459;-68
2022/09/16 02:55:36;;;;;;;1999.90;999.90;;;13.50;99.90;;;;;;5034842;28;20401;-68
2022/09/16 02:58:03;;;;;;;1999.90;999.90;;;13.50;99.90;;;;;;5034634;28;20902;-68
2022/09/16 03:00:32;;;;;;;1999.90;999.90;;;13.50;99.90;;;;;;5034802;28;20463;-68
2022/09/16 03:02:58;;;;;;;1999.90;999.90;;;13.50;99.90;;;;;;5034837;28;20449;-68
2022/09/16 03:05:28;;;;;;;1999.90;999.90;;;13.50;99.90;;;;;;5034642;28;21130;-68
2022/09/16 03:07:54;;;;;;;1999.90;999.90;;;13.40;99.90;;;;;;5034277;28;20178;-68
2022/09/16 03:10:22;;;;;;;1999.90;999.90;;;13.40;99.90;;;;;;5034595;28;20997;-68
2022/09/16 03:13:21;;;;;;;1999.90;999.90;;;13.40;99.90;;;;;;5034539;28;20432;-68
2022/09/16 03:16:04;;;;;;;1999.90;999.90;;;13.40;99.90;;;;;;5034430;28;20415;-68
2022/09/16 03:18:38;;;;;;;1999.90;999.90;;;13.50;99.90;;;;;;5016652;28;20463;-68
2022/09/16 03:21:16;;;;;;;1999.90;999.90;;;13.50;99.90;;;;;;5034337;28;20400;-68
2022/09/16 03:23:45;;;;;;;1999.90;999.90;;;13.50;99.90;;;;;;5034515;28;20482;-68
2022/09/16 03:26:32;;;;;;;1999.90;999.90;;;13.50;99.90;;;;;;5033935;28;20924;-68
2022/09/16 03:29:25;;;;;;;1999.90;999.90;;;13.40;99.90;;;;;;5033875;28;20411;-68
2022/09/16 03:31:58;;;;;;;1999.90;999.90;;;13.50;99.90;;;;;;5034315;28;20404;-68
2022/09/16 03:34:58;;;;;;;1999.90;999.90;;;13.50;99.90;;;;;;5034298;28;20409;-68
2022/09/16 03:37:27;;;;;;;1999.90;999.90;;;13.40;99.90;;;;;;5019425;28;20440;-68
2022/09/16 03:39:58;;;;;;;1999.90;999.90;;;13.40;99.90;;;;;;5034095;28;20850;-68
2022/09/16 03:42:25;;;;;;;1999.90;999.90;;;13.30;99.90;;;;;;5034271;28;20497;-68
2022/09/16 03:44:50;;;;;;;1999.90;999.90;;;13.30;99.90;;;;;;5033996;28;20403;-68
2022/09/16 03:47:16;;;;;;;1999.90;999.90;;;13.30;99.90;;;;;;5015790;28;20438;-68
2022/09/16 03:49:42;;;;;;;1999.90;999.90;;;13.20;99.90;;;;;;5033948;28;20549;-68
2022/09/16 03:52:08;;;;;;;1999.90;999.90;;;13.30;99.90;;;;;;5033848;28;20405;-68
2022/09/16 03:54:35;;;;;;;1999.90;999.90;;;13.30;99.90;;;;;;5033811;28;20669;-68
2022/09/16 03:57:01;;;;;;;1999.90;999.90;;;13.20;99.90;;;;;;5033426;28;20428;-68
2022/09/16 03:59:28;;;;;;;1999.90;999.90;;;13.30;99.90;;;;;;5033756;28;20415;-68
2022/09/16 04:01:54;;;;;;;1999.90;999.90;;;13.30;99.90;;;;;;5033582;28;20477;-68
2022/09/16 04:04:20;;;;;;;1999.90;999.90;;;13.20;99.90;;;;;;5033634;28;20409;-68
2022/09/16 04:06:46;;;;;;;1999.90;999.90;;;13.20;99.90;;;;;;5033225;28;20443;-68
2022/09/16 04:09:12;;;;;;;1999.90;999.90;;;13.20;99.90;;;;;;5033414;28;20992;-68
2022/09/16 04:11:38;;;;;;;1999.90;999.90;;;13.10;99.90;;;;;;5033565;28;20232;-68
2022/09/16 04:14:05;;;;;;;1999.90;999.90;;;13.00;99.90;;;;;;5033413;28;20408;-68
2022/09/16 04:16:31;;;;;;;1999.90;999.90;;;12.90;99.90;;;;;;5032981;28;20542;-68
2022/09/16 04:18:57;;;;;;;1999.90;999.90;;;12.80;99.90;;;;;;5033345;28;20937;-68
2022/09/16 04:21:23;;;;;;;1999.90;999.90;;;12.80;99.90;;;;;;5015621;28;20444;-68
2022/09/16 04:23:49;;;;;;;1999.90;999.90;;;12.80;99.90;;;;;;5033348;28;20173;-69
2022/09/16 04:26:15;;;;;;;1999.90;999.90;;;12.70;99.90;;;;;;5033007;28;20765;-68
2022/09/16 04:28:42;;;;;;;1999.90;999.90;;;12.70;99.90;;;;;;5032997;28;20399;-68
2022/09/16 04:31:11;;;;;;;1999.90;999.90;;;12.70;99.90;;;;;;5033063;28;20411;-68
2022/09/16 04:33:37;;;;;;;1999.90;999.90;;;12.70;99.90;;;;;;5033136;28;20404;-68
2022/09/16 04:36:04;;;;;;;1999.90;999.90;;;12.80;99.90;;;;;;5032972;28;20513;-68
2022/09/16 04:38:30;;;;;;;1999.90;999.90;;;12.90;99.90;;;;;;5032532;28;20780;-68
2022/09/16 04:41:01;;;;;;;1999.90;999.90;;;13.00;99.90;;;;;;5032948;28;20410;-68
2022/09/16 04:43:26;;;;;;;1999.90;999.90;;;13.00;99.90;;;;;;5033271;28;20984;-68
2022/09/16 04:45:52;;;;;;;1999.90;999.90;;;13.00;99.90;;;;;;5032746;28;20506;-68
2022/09/16 04:48:18;;;;;;;1999.90;999.90;;;12.90;99.90;;;;;;5032673;28;20642;-68
2022/09/16 04:50:43;;;;;;;1999.90;999.90;;;12.90;99.90;;;;;;5033025;28;20526;-68
2022/09/16 04:53:09;;;;;;;1999.90;999.90;;;12.90;99.90;;;;;;5032628;28;20421;-68
2022/09/16 04:55:35;;;;;;;1999.90;999.90;;;12.90;99.90;;;;;;5032596;28;20186;-68
2022/09/16 04:58:01;;;;;;;1999.90;999.90;;;12.90;99.90;;;;;;5032281;28;20263;-68
2022/09/16 05:00:26;;;;;;;1999.90;999.90;;;12.90;99.90;;;;;;5032773;28;20490;-68
2022/09/16 05:02:53;;;;;;;1999.90;999.90;;;12.90;99.90;;;;;;5032379;28;20196;-68
2022/09/16 05:05:19;;;;;;;1999.90;999.90;;;13.00;99.90;;;;;;5032583;28;20174;-68
2022/09/16 05:07:45;;;;;;;1999.90;999.90;;;13.00;99.90;;;;;;5032005;28;20508;-68
2022/09/16 05:10:11;;;;;;;1999.90;999.90;;;13.10;99.90;;;;;;5032402;28;20407;-68
2022/09/16 05:12:37;;;;;;;1999.90;999.90;;;13.10;99.90;;;;;;5032379;28;20716;-68
2022/09/16 05:15:03;;;;;;;1999.90;999.90;;;13.10;99.90;;;;;;5032571;28;20226;-68
2022/09/16 05:17:30;;;;;;;1999.90;999.90;;;13.10;99.90;;;;;;5031938;28;20526;-68
2022/09/16 05:19:56;;;;;;;1999.90;999.90;;;13.10;99.90;;;;;;5032383;28;20983;-68
2022/09/16 05:22:22;;;;;;;1999.90;999.90;;;13.20;99.90;;;;;;5032102;28;20440;-68
2022/09/16 05:24:47;;;;;;;1999.90;999.90;;;13.20;99.90;;;;;;5032264;28;20405;-68
2022/09/16 05:27:13;;;;;;;1999.90;999.90;;;13.20;99.90;;;;;;5031751;28;20497;-68
2022/09/16 05:29:39;;;;;;;1999.90;999.90;;;13.10;99.90;;;;;;5032160;28;20169;-68
2022/09/16 05:32:05;;;;;;;1999.90;999.90;;;13.20;99.90;;;;;;5032239;28;20204;-68
2022/09/16 05:34:30;;;;;;;1999.90;999.90;;;13.10;99.90;;;;;;5032255;28;20186;-68
2022/09/16 05:36:56;;;;;;;1999.90;999.90;;;13.20;99.90;;;;;;5031806;28;20276;-68
2022/09/16 05:39:23;;;;;;;1999.90;999.90;;;13.10;99.90;;;;;;5031978;28;20176;-68
2022/09/16 05:41:51;;;;;;;1999.90;999.90;;;13.10;99.90;;;;;;5031920;28;20856;-68
2022/09/16 05:44:16;;;;;;;1999.90;999.90;;;13.20;99.90;;;;;;5031937;28;20767;-68
2022/09/16 05:46:42;;;;;;;1999.90;999.90;;;13.20;99.90;;;;;;5031589;28;20423;-68
2022/09/16 05:49:08;;;;;;;1999.90;999.90;;;13.20;99.90;;;;;;5031967;28;20174;-68
2022/09/16 05:51:35;;;;;;;1999.90;999.90;;;13.20;99.90;;;;;;5037622;28;21130;-68
2022/09/16 05:54:01;;;;;;;1999.90;999.90;;;13.20;99.90;;;;;;5038540;28;20232;-68
2022/09/16 05:56:29;;;;;;;1999.90;999.90;;;13.20;99.90;;;;;;5038039;28;20544;-68
2022/09/16 05:58:56;;;;;;;1999.90;999.90;;;13.20;99.90;;;;;;5038421;28;20264;-68
2022/09/16 06:01:25;;;;;;;1999.90;999.90;;;13.20;99.90;;;;;;5038401;28;20405;-68
2022/09/16 06:03:53;;;;;;;1999.90;999.90;;;13.30;99.90;;;;;;5038447;28;20431;-68
2022/09/16 06:06:33;;;;;;;1999.90;999.90;;;13.20;99.90;;;;;;5038003;28;20957;-68
2022/09/16 06:09:07;;;;;;;1999.90;999.90;;;13.30;99.90;;;;;;5038323;28;20433;-68
2022/09/16 06:11:37;;;;;;;1999.90;999.90;;;13.30;99.90;;;;;;5038539;28;20818;-68
2022/09/16 06:14:04;;;;;;;1999.90;999.90;;;13.40;99.90;;;;;;5038275;28;20454;-68
2022/09/16 06:16:31;;;;;;;1999.90;999.90;;;13.40;99.90;;;;;;5037913;28;20422;-68
2022/09/16 06:18:59;;;;;;;1999.90;999.90;;;13.40;99.90;;;;;;5038195;28;20415;-69
2022/09/16 06:21:24;;;;;;;1999.90;999.90;;;13.50;99.90;;;;;;5038051;28;20416;-68
2022/09/16 06:23:50;;;;;;;1999.90;999.90;;;13.50;99.90;;;;;;5038380;28;20412;-68
2022/09/16 06:26:20;;;;;;;1999.90;999.90;;;13.40;99.90;;;;;;5038016;28;20463;-68
2022/09/16 06:28:46;;;;;;;1999.90;999.90;;;13.50;99.90;;;;;;5037983;28;20193;-68
2022/09/16 06:31:14;;;;;;;1999.90;999.90;;;13.50;99.90;;;;;;5038250;28;20430;-68
2022/09/16 06:33:40;;;;;;;1999.90;999.90;;;13.40;99.90;;;;;;5038165;28;20901;-68
2022/09/16 06:36:08;;;;;;;1999.90;999.90;;;13.60;99.90;;;;;;5037839;28;20485;-68
2022/09/16 06:38:35;;;;;;;1999.90;999.90;;;13.60;99.90;;;;;;5037935;28;20406;-68
2022/09/16 06:41:02;;;;;;;1999.90;999.90;;;13.60;99.90;;;;;;5038070;28;20486;-68
2022/09/16 06:43:29;;;;;;;1999.90;999.90;;;13.50;99.90;;;;;;5037937;28;20976;-68
2022/09/16 06:46:04;;;;;;;1999.90;999.90;;;13.50;99.90;;;;;;5037611;28;20948;-68
2022/09/16 06:48:35;;;;;;;1999.90;999.90;;;13.50;99.90;;;;;;5037660;28;20403;-68
2022/09/16 06:51:03;;;;;;;1999.90;999.90;;;13.50;99.90;;;;;;5038146;28;20771;-68
2022/09/16 06:53:30;;;;;;;1999.90;999.90;;;13.60;99.90;;;;;;5038066;28;20444;-68
2022/09/16 06:56:00;;;;;;;1999.90;999.90;;;13.60;99.90;;;;;;5037699;28;20824;-68
2022/09/16 06:58:28;;;;;;;1999.90;999.90;;;13.60;99.90;;;;;;5037727;28;20506;-68
2022/09/16 07:00:54;;;;;;;1999.90;999.90;;;13.70;99.90;;;;;;5037975;28;20451;-68
2022/09/16 07:03:19;;;;;;;1999.90;999.90;;;13.70;99.90;;;;;;5034728;28;20493;-68
2022/09/16 07:05:59;;;;;;;1999.90;999.90;;;13.70;99.90;;;;;;5034458;28;20448;-68
2022/09/16 07:08:24;;;;;;;1999.90;999.90;;;13.80;99.90;;;;;;5034477;28;20203;-68
2022/09/16 07:11:05;;;;;;;1999.90;999.90;;;13.90;99.90;;;;;;5034638;28;20510;-68
2022/09/16 07:13:31;;;;;;;1999.90;999.90;;;13.80;99.90;;;;;;5034534;28;20177;-68
2022/09/16 07:16:09;;;;;;;1999.90;999.90;;;13.80;99.90;;;;;;5034529;28;20822;-68
2022/09/16 07:18:35;;;;;;;1999.90;999.90;;;13.80;99.90;;;;;;5034274;28;20925;-68
2022/09/16 07:21:02;;;;;;;1999.90;999.90;;;13.90;99.90;;;;;;5034429;28;20406;-68
2022/09/16 07:23:30;;;;;;;1999.90;999.90;;;14.00;99.90;;;;;;5034287;28;20232;-68
2022/09/16 07:26:00;;;;;;;1999.90;999.90;;;14.10;99.90;;;;;;5034235;28;20860;-68
2022/09/16 07:28:26;;;;;;;1999.90;999.90;;;14.20;99.90;;;;;;5034039;28;20446;-68
2022/09/16 07:30:51;;;;;;;1999.90;999.90;;;14.40;99.90;;;;;;5034313;28;20437;-68
2022/09/16 07:33:17;;;;;;;1999.90;999.90;;;14.50;99.90;;;;;;5034329;28;20176;-68
2022/09/16 07:35:43;;;;;;;1999.90;999.90;;;14.60;99.90;;;;;;5034006;28;20191;-68
2022/09/16 07:38:08;;;;;;;1999.90;999.90;;;14.50;99.90;;;;;;5033927;28;20251;-68
2022/09/16 07:40:34;;;;;;;1999.90;999.90;;;14.60;99.90;;;;;;5034083;28;20173;-68
2022/09/16 07:42:59;;;;;;;1999.90;999.90;;;14.70;99.90;;;;;;5034201;28;20233;-68
2022/09/16 07:45:25;;;;;;;1999.90;999.90;;;14.70;99.90;;;;;;5033775;28;20671;-68
2022/09/16 07:47:50;;;;;;;1999.90;999.90;;;14.70;99.90;;;;;;5033739;28;20225;-68
2022/09/16 07:50:16;;;;;;;1999.90;999.90;;;14.70;99.90;;;;;;5033880;28;20257;-68
2022/09/16 07:52:42;;;;;;;1999.90;999.90;;;14.60;99.90;;;;;;5033895;28;20168;-68
2022/09/16 07:55:08;;;;;;;1999.90;999.90;;;14.70;99.90;;;;;;5033810;28;20171;-68
2022/09/16 07:57:33;;;;;;;1999.90;999.90;;;14.60;99.90;;;;;;5033401;28;20201;-68
2022/09/16 07:59:59;;;;;;;1999.90;999.90;;;14.60;99.90;;;;;;5033776;28;20410;-68
2022/09/16 08:02:25;;;;;;;1999.90;999.90;;;14.60;99.90;;;;;;5033757;28;20228;-68
2022/09/16 08:04:50;;;;;;;1999.90;999.90;;;14.70;99.90;;;;;;5033648;28;20195;-68
2022/09/16 08:07:17;;;;;;;1999.90;999.90;;;14.70;99.90;;;;;;5033648;28;20552;-68
2022/09/16 08:09:42;;;;;;;1999.90;999.90;;;14.50;99.90;;;;;;5033563;28;20244;-68
2022/09/16 08:12:09;;;;;;;1999.90;999.90;;;14.40;99.90;;;;;;5033517;28;20488;-68
2022/09/16 08:14:35;;;;;;;1999.90;999.90;;;14.40;99.90;;;;;;5032959;28;20172;-68
2022/09/16 08:17:02;;;;;;;1999.90;999.90;;;14.40;99.90;;;;;;5033116;28;20429;-68
2022/09/16 08:19:28;;;;;;;1999.90;999.90;;;14.40;99.90;;;;;;5033273;28;20407;-68
2022/09/16 08:21:53;;;;;;;1999.90;999.90;;;14.30;99.90;;;;;;5033232;28;20507;-69
2022/09/16 08:24:19;;;;;;;1999.90;999.90;;;14.40;99.90;;;;;;5033259;28;20168;-68
2022/09/16 08:26:45;;;;;;;1999.90;999.90;;;14.50;99.90;;;;;;5033097;28;20277;-68
2022/09/16 08:29:10;;;;;;;1999.90;999.90;;;14.50;99.90;;;;;;5030402;28;20168;-68
2022/09/16 08:31:37;;;;;;;1999.90;999.90;;;14.60;99.90;;;;;;5032733;28;20627;-68
2022/09/16 08:34:02;;;;;;;1999.90;999.90;;;14.60;99.90;;;;;;5032704;28;20174;-68
2022/09/16 08:36:28;;;;;;;1999.90;999.90;;;14.70;99.90;;;;;;5032352;28;20471;-68
2022/09/16 08:38:55;;;;;;;1999.90;999.90;;;14.80;99.90;;;;;;5032516;28;20874;-68
2022/09/16 08:41:44;;;;;;;1999.90;999.90;;;14.70;99.90;;;;;;5032440;28;20641;-68
2022/09/16 08:44:32;;;;;;;1999.90;999.90;;;14.80;99.90;;;;;;5032609;28;20403;-68
2022/09/16 08:47:25;;;;;;;1999.90;999.90;;;14.90;99.90;;;;;;5032032;28;20417;-69
2022/09/16 08:49:53;;;;;;;1999.90;999.90;;;15.00;99.90;;;;;;5032503;28;21081;-68
2022/09/16 08:52:36;;;;;;;1999.90;999.90;;;14.90;99.90;;;;;;5032516;28;20452;-68
2022/09/16 08:55:23;;;;;;;1999.90;999.90;;;14.90;99.90;;;;;;5032458;28;20869;-69
2022/09/16 08:58:10;;;;;;;1999.90;999.90;;;15.00;99.90;;;;;;5032047;28;20417;-67
2022/09/16 09:00:36;;;;;;;1999.90;999.90;;;15.20;99.90;;;;;;5032303;28;20411;-68
2022/09/16 09:03:14;;;;;;;1999.90;999.90;;;15.10;99.90;;;;;;5032174;28;20457;-68
2022/09/16 09:05:55;;;;;;;1999.90;999.90;;;15.20;99.90;;;;;;5032038;28;20397;-68
2022/09/16 09:08:30;;;;;;;1999.90;999.90;;;15.40;99.90;;;;;;5032018;28;20411;-68
2022/09/16 09:11:18;;;;;;;1999.90;999.90;;;15.40;99.90;;;;;;5032094;28;20401;-68
2022/09/16 09:14:00;;;;;;;1999.90;999.90;;;15.60;99.90;;;;;;5032122;28;20462;-68
2022/09/16 09:16:46;;;;;;;1999.90;999.90;;;15.90;99.90;;;;;;5031639;28;20427;-68
2022/09/16 09:19:35;;;;;;;1999.90;999.90;;;16.00;99.90;;;;;;5032063;28;20415;-67
2022/09/16 09:22:44;;;;;;;1999.90;999.90;;;16.20;99.90;;;;;;5031970;28;20453;-68
2022/09/16 09:25:34;;;;;;;1999.90;999.90;;;16.30;99.90;;;;;;5031108;28;20396;-68
2022/09/16 09:28:09;;;;;;;1999.90;999.90;;;16.10;99.90;;;;;;5031672;28;20406;-68
2022/09/16 09:30:37;;;;;;;1999.90;999.90;;;16.10;99.90;;;;;;5031784;28;20405;-68
2022/09/16 09:33:05;;;;;;;1999.90;999.90;;;15.90;99.90;;;;;;5031678;28;20476;-68
2022/09/16 09:35:55;;;;;;;1999.90;999.90;;;15.80;99.90;;;;;;5031726;28;20408;-68
2022/09/16 09:38:55;;;;;;;1999.90;999.90;;;15.60;99.90;;;;;;5031600;28;20463;-68
2022/09/16 09:41:30;;;;;;;1999.90;999.90;;;15.60;99.90;;;;;;5031787;28;20926;-68
2022/09/16 09:44:23;;;;;;;1999.90;999.90;;;15.60;99.90;;;;;;5031632;28;20398;-68
2022/09/16 09:46:59;;;;;;;1999.90;999.90;;;15.60;99.90;;;;;;5031178;28;20427;-68
2022/09/16 09:49:30;;;;;;;1999.90;999.90;;;15.90;99.90;;;;;;5031676;28;20831;-67
2022/09/16 09:52:00;;;;;;;1999.90;999.90;;;16.00;99.90;;;;;;5031556;28;20413;-68
2022/09/16 09:54:28;;;;;;;1999.90;999.90;;;16.30;99.90;;;;;;5031533;28;20416;-68
2022/09/16 09:57:17;;;;;;;1999.90;999.90;;;16.20;99.90;;;;;;5031373;28;21016;-68
2022/09/16 09:59:48;;;;;;;1999.90;999.90;;;16.30;99.90;;;;;;5031481;28;20467;-68
2022/09/16 10:02:19;;;;;;;1999.90;999.90;;;16.30;99.90;;;;;;5031353;28;20507;-68
2022/09/16 10:04:46;;;;;;;1999.90;999.90;;;16.30;99.90;;;;;;5031394;28;20399;-68
2022/09/16 10:07:14;;;;;;;1999.90;999.90;;;16.10;99.90;;;;;;5031024;28;20882;-68
2022/09/16 10:10:13;;;;;;;1999.90;999.90;;;16.00;99.90;;;;;;5031370;28;20409;-68
2022/09/16 10:12:39;;;;;;;1999.90;999.90;;;16.00;99.90;;;;;;5016648;28;20436;-68
2022/09/16 10:15:05;;;;;;;1999.90;999.90;;;15.90;99.90;;;;;;5031332;28;20428;-68
2022/09/16 10:17:32;;;;;;;1999.90;999.90;;;16.00;99.90;;;;;;5031007;28;20189;-68
2022/09/16 10:20:03;;;;;;;1999.90;999.90;;;16.10;99.90;;;;;;5031343;28;20411;-68
2022/09/16 10:22:32;;;;;;;1999.90;999.90;;;16.20;99.90;;;;;;5031230;28;20852;-68
2022/09/16 10:24:59;;;;;;;1999.90;999.90;;;16.20;99.90;;;;;;5031254;28;20400;-68
2022/09/16 10:27:25;;;;;;;1999.90;999.90;;;16.10;99.90;;;;;;5030954;28;20432;-68
2022/09/16 10:30:12;;;;;;;1999.90;999.90;;;16.20;99.90;;;;;;5031164;28;20406;-68
2022/09/16 10:32:47;;;;;;;1999.90;999.90;;;16.30;99.90;;;;;;5031168;28;20413;-68
2022/09/16 10:35:24;;;;;;;1999.90;999.90;;;16.50;99.90;;;;;;5031063;28;20408;-68
2022/09/16 10:38:00;;;;;;;1999.90;999.90;;;16.50;99.90;;;;;;5033855;28;20471;-68
2022/09/16 10:40:27;;;;;;;1999.90;999.90;;;16.70;99.90;;;;;;5034943;28;20417;-68
2022/09/16 10:42:56;;;;;;;1999.90;999.90;;;16.80;99.90;;;;;;5034487;28;20455;-68
2022/09/16 10:45:36;;;;;;;1999.90;999.90;;;16.80;99.90;;;;;;5034658;28;20406;-68
2022/09/16 10:48:11;;;;;;;1999.90;999.90;;;16.70;99.90;;;;;;5034405;28;20518;-67
2022/09/16 10:50:37;;;;;;;1999.90;999.90;;;16.50;99.90;;;;;;5034583;28;20413;-68
2022/09/16 10:53:02;;;;;;;1999.90;999.90;;;16.60;99.90;;;;;;5034739;28;20501;-68
2022/09/16 10:55:37;;;;;;;1999.90;999.90;;;16.50;99.90;;;;;;5034550;28;20180;-68
2022/09/16 10:58:16;;;;;;;1999.90;999.90;;;16.60;99.90;;;;;;5034392;28;20194;-68
2022/09/16 11:00:47;;;;;;;1999.90;999.90;;;16.60;99.90;;;;;;5034412;28;20411;-67
2022/09/16 11:03:45;;;;;;;1999.90;999.90;;;16.60;99.90;;;;;;5034685;28;20464;-68
2022/09/16 11:06:32;;;;;;;1999.90;999.90;;;16.50;99.90;;;;;;5034207;28;20437;-68
2022/09/16 11:09:09;;;;;;;1999.90;999.90;;;16.60;99.90;;;;;;5034366;28;20388;-68
2022/09/16 11:11:53;;;;;;;1999.90;999.90;;;16.80;99.90;;;;;;5034601;28;20802;-68
2022/09/16 11:14:50;;;;;;;1999.90;999.90;;;17.00;99.90;;;;;;5034317;28;20420;-68
2022/09/16 11:17:19;;;;;;;1999.90;999.90;;;17.30;99.90;;;;;;5033832;28;20425;-68
2022/09/16 11:19:59;;;;;;;1999.90;999.90;;;17.30;99.90;;;;;;5034224;28;20479;-68
2022/09/16 11:22:41;;;;;;;1999.90;999.90;;;17.10;99.90;;;;;;5034099;28;20443;-68
2022/09/16 11:25:48;;;;;;;1999.90;999.90;;;16.90;99.90;;;;;;5034186;28;20440;-68
2022/09/16 11:28:23;;;;;;;1999.90;999.90;;;16.70;99.90;;;;;;5033901;28;20441;-68
2022/09/16 11:31:05;;;;;;;1999.90;999.90;;;16.40;99.90;;;;;;5034095;28;20462;-68
2022/09/16 11:34:09;;;;;;;1999.90;999.90;;;16.20;99.90;;;;;;5034010;28;20846;-68
2022/09/16 11:36:49;;;;;;;1999.90;999.90;;;16.10;99.90;;;;;;5033579;28;20429;-68
2022/09/16 11:39:37;;;;;;;1999.90;999.90;;;15.60;99.90;;;;;;5033845;28;20408;-67
2022/09/16 11:42:18;;;;;;;1999.90;999.90;;;15.30;99.90;;;;;;5033760;28;20478;-67
2022/09/16 11:45:08;;;;;;;1999.90;999.90;;;15.20;99.90;;;;;;5033670;28;20400;-68
2022/09/16 11:47:51;;;;;;;1999.90;999.90;;;15.00;99.90;;;;;;5032825;28;20510;-68
2022/09/16 11:50:48;;;;;;;1999.90;999.90;;;14.90;99.90;;;;;;5033652;28;20442;-68
2022/09/16 11:53:37;;;;;;;1999.90;999.90;;;14.70;99.90;;;;;;4999046;28;20409;-68
2022/09/16 11:56:18;;;;;;;1999.90;999.90;;;14.60;99.90;;;;;;5022568;28;20440;-68
2022/09/16 11:58:55;;;;;;;1999.90;999.90;;;14.50;99.90;;;;;;5033243;28;20940;-68
2022/09/16 12:01:31;;;;;;;1999.90;999.90;;;14.10;99.90;;;;;;5033372;28;20401;-68
2022/09/16 12:04:35;;;;;;;1999.90;999.90;;;13.80;99.90;;;;;;5033392;28;20397;-68
2022/09/16 12:07:08;;;;;;;1999.90;999.90;;;13.70;99.90;;;;;;5032895;28;20472;-68
2022/09/16 12:09:44;;;;;;;1999.90;999.90;;;13.70;99.90;;;;;;5033276;28;20491;-68
2022/09/16 12:12:14;;;;;;;1999.90;999.90;;;13.80;99.90;;;;;;5033165;28;20784;-68
2022/09/16 12:14:47;;;;;;;1999.90;999.90;;;14.50;99.90;;;;;;5033139;28;20401;-68
2022/09/16 12:17:19;;;;;;;1999.90;999.90;;;14.70;99.90;;;;;;5032769;28;20522;-67
2022/09/16 12:20:04;;;;;;;1999.90;999.90;;;14.70;99.90;;;;;;5032981;28;20411;-67
2022/09/16 12:22:40;;;;;;;1999.90;999.90;;;13.80;99.90;;;;;;5033139;28;20516;-67
2022/09/16 12:25:26;;;;;;;1999.90;999.90;;;12.80;99.90;;;;;;5033084;28;20404;-66